Latest Weather Observations for Bradshaw

IDD60801

Issued at 3:51 am CST Tuesday 4 August 2020 (issued every 10 minutes, with the page automatically refreshed every 10 minutes)

About weather observations | Map of weather stations | Latest weather observations for NT | Other Formats
Station Details ID: 014954 Name: BRADSHAW Lat: -14.94 Lon: 130.81 Height: 75.0 m
Data from the previous 72 hours. | See also: Recent months at Bradshaw
Date/Time
CST
Temp
°C
App
Temp
°C
Dew
Point
°C
Rel
Hum
%
Delta-T
°C
Wind Press
QNH
hPa
Press
MSL
hPa
Rain since
9am
mm
Dir  Spd
km/h
Gust
km/h
Spd
kts
Gust
kts
04/03:30am 20.0 - - - - N 7 9 4 5 1011.8 - 0.0
04/03:00am 20.0 - - - - NE 4 6 2 3 1012.0 1011.6 0.0
04/02:30am 20.1 - - - - NE 4 9 2 5 1012.1 - 0.0
04/02:00am 21.5 - - - - NNE 6 7 3 4 1012.3 - 0.0
04/01:30am 21.8 - - - - ENE 6 9 3 5 1012.5 - 0.0
04/01:00am 22.1 - - - - NE 7 9 4 5 1012.5 - 0.0
04/12:30am 21.8 - - - - NNE 6 11 3 6 1012.7 - 0.0
04/12:00am 22.4 - - - - CALM 0 0 0 0 1012.6 1012.2 0.0
 
Date/Time
CST
Temp
°C
App
Temp
°C
Dew
Point
°C
Rel
Hum
%
Delta-T
°C
Wind Press
QNH
hPa
Press
MSL
hPa
Rain since
9am
mm
Dir  Spd
km/h
Gust
km/h
Spd
kts
Gust
kts
03/11:30pm 23.1 - - - - CALM 0 0 0 0 1012.6 - 0.0
03/11:00pm 24.8 - - - - N 2 7 1 4 1012.6 - 0.0
03/10:30pm 25.1 - - - - WNW 6 13 3 7 1012.4 - 0.0
03/10:00pm 25.7 - - - - WNW 9 13 5 7 1012.3 - 0.0
03/09:30pm 24.0 - - - - NNE 6 6 3 3 1011.9 - 0.0
03/09:00pm 24.6 - - - - NE 7 7 4 4 1011.6 1011.2 0.0
03/08:30pm 25.2 - - - - NE 2 7 1 4 1011.4 - 0.0
03/08:00pm 26.9 - - - - NNE 7 9 4 5 1011.1 - 0.0
03/07:30pm 27.7 - - - - NNE 7 9 4 5 1010.8 - 0.0
03/07:00pm 29.3 - - - - N 7 7 4 4 1010.5 - 0.0
03/06:30pm 30.9 - - - - N 9 15 5 8 1010.1 - 0.0
03/06:00pm 31.7 - - - - NNW 2 9 1 5 1010.1 1009.7 0.0
03/05:30pm 32.0 - - - - NE 4 15 2 8 1009.9 - 0.0
03/05:00pm 32.3 - - - - SE 9 13 5 7 1009.8 - 0.0
03/04:30pm 32.3 - - - - E 11 22 6 12 1009.7 - 0.0
03/04:00pm 32.2 - - - - ESE 13 17 7 9 1009.7 - 0.0
03/03:30pm 31.8 - - - - NNE 11 17 6 9 1010.0 - 0.0
03/03:00pm 32.5 - - - - NE 11 26 6 14 1010.6 1010.2 0.0
03/02:30pm 31.7 - - - - ESE 15 26 8 14 1011.0 - 0.0
03/02:00pm 32.2 - - - - NE 7 13 4 7 1011.5 - 0.0
03/01:30pm 30.9 - - - - ENE 9 17 5 9 1012.1 - 0.0
03/01:00pm 30.9 - - - - E 17 30 9 16 1012.8 - 0.0
03/12:30pm 31.0 - - - - NE 15 30 8 16 1013.1 - 0.0
03/12:00pm 30.1 - - - - NNE 19 26 10 14 1013.9 1013.5 0.0
03/11:30am 29.7 - - - - NE 20 24 11 13 1014.4 - 0.0
03/11:00am 28.4 - - - - NNE 13 20 7 11 1014.8 - 0.0
03/10:30am 27.3 - - - - NE 15 20 8 11 1014.9 - 0.0
03/10:00am 26.0 - - - - NNE 11 15 6 8 1015.0 - 0.0
03/09:30am 24.1 - - - - ENE 9 13 5 7 1015.0 - 0.0
03/09:00am 22.3 - - - - NNE 11 17 6 9 1015.1 1014.8 0.0
03/08:30am 21.1 - - - - N 9 17 5 9 1014.8 - 0.0
03/08:00am 17.9 - - - - CALM 0 0 0 0 1014.7 - 0.0
03/07:30am 16.5 - - - - N 2 6 1 3 1014.4 - 0.0
03/07:00am 16.7 - - - - N 13 13 7 7 1014.1 - 0.0
03/06:30am 16.7 - - - - N 7 11 4 6 1013.8 - 0.0
03/06:00am 18.2 - - - - N 9 11 5 6 1013.6 1013.2 0.0
03/05:30am 18.4 - - - - NE 7 9 4 5 1013.6 - 0.0
03/05:00am 18.5 - - - - ENE 9 11 5 6 1013.4 - 0.0
03/04:30am 19.4 - - - - N 9 13 5 7 1013.3 - 0.0
03/04:00am 17.5 - - - - NE 11 15 6 8 1013.4 - 0.0
03/03:30am 16.6 - - - - N 7 9 4 5 1013.0 - 0.0
03/03:00am 16.9 - - - - N 6 7 3 4 1013.1 1012.7 0.0
03/02:30am 17.1 - - - - N 7 9 4 5 1013.2 - 0.0
03/02:00am 16.9 - - - - CALM 0 0 0 0 1013.4 - 0.0
03/01:30am 17.5 - - - - CALM 0 0 0 0 1013.4 - 0.0
03/01:00am 17.0 - - - - CALM 0 0 0 0 1013.6 - 0.0
03/12:30am 16.7 - - - - N 4 7 2 4 1013.6 - 0.0
03/12:00am 18.3 - - - - N 2 9 1 5 1013.6 1013.2 0.0
 
Date/Time
CST
Temp
°C
App
Temp
°C
Dew
Point
°C
Rel
Hum
%
Delta-T
°C
Wind Press
QNH
hPa
Press
MSL
hPa
Rain since
9am
mm
Dir  Spd
km/h
Gust
km/h
Spd
kts
Gust
kts
02/11:30pm 17.7 - - - - CALM 0 0 0 0 1013.6 - 0.0
02/11:00pm 19.6 - - - - NE 4 9 2 5 1013.6 - 0.0
02/10:30pm 19.5 - - - - N 6 7 3 4 1013.7 - 0.0
02/10:00pm 20.6 - - - - CALM 0 0 0 0 1013.4 - 0.0
02/09:30pm 20.3 - - - - SW 6 9 3 5 1013.4 - 0.0
02/09:00pm 20.6 - - - - CALM 0 0 0 0 1013.1 1012.7 0.0
02/08:30pm 21.6 - - - - N 2 7 1 4 1012.7 - 0.0
02/08:00pm 23.5 - - - - NE 7 9 4 5 1012.3 - 0.0
02/07:30pm 25.9 - - - - E 2 6 1 3 1011.8 - 0.0
02/07:00pm 28.1 - - - - ESE 7 9 4 5 1011.5 - 0.0
02/06:30pm 30.0 - - - - SSE 7 11 4 6 1011.4 - 0.0
02/06:00pm 30.9 - - - - E 9 11 5 6 1011.3 1010.9 0.0
02/05:30pm 30.8 - - - - S 13 19 7 10 1011.2 - 0.0
02/05:00pm 31.2 - - - - S 15 20 8 11 1011.2 - 0.0
02/04:30pm 31.2 - - - - SSE 15 20 8 11 1011.3 - 0.0
02/04:00pm 31.2 - - - - N 7 15 4 8 1011.4 - 0.0
02/03:30pm 31.5 - - - - ENE 11 20 6 11 1011.4 - 0.0
02/03:00pm 31.1 - - - - ESE 9 17 5 9 1011.8 1011.4 0.0
02/02:30pm 30.4 - - - - ESE 13 19 7 10 1012.3 - 0.0
02/02:00pm 30.6 - - - - E 13 20 7 11 1012.9 - 0.0
02/01:30pm 30.2 - - - - SSE 19 26 10 14 1013.3 - 0.0
02/01:00pm 29.5 - - - - E 17 28 9 15 1014.0 - 0.0
02/12:30pm 28.8 - - - - SE 19 28 10 15 1014.5 - 0.0
02/12:00pm 28.6 - - - - E 19 30 10 16 1015.0 1014.7 0.0
02/11:30am 27.8 - - - - ENE 19 30 10 16 1015.7 - 0.0
02/11:00am 26.4 - - - - NE 15 22 8 12 1016.3 - 0.0
02/10:30am 25.9 - - - - NNE 15 20 8 11 1016.5 - 0.0
02/10:00am 24.6 - - - - NE 19 24 10 13 1016.9 - 0.0
02/09:30am 23.1 - - - - NE 13 19 7 10 1017.1 - 0.0
02/09:00am 21.2 - - - - NE 11 17 6 9 1017.0 1016.7 0.0
02/08:30am 20.0 - - - - NNE 13 17 7 9 1016.8 - 0.0
02/08:00am 18.2 - - - - N 11 15 6 8 1016.5 - 0.0
02/07:56am 17.4 - - - - N 9 11 5 6 1016.4 - 0.0
02/07:30am 12.4 - - - - NNW 9 11 5 6 1016.1 - 0.0
02/07:00am 12.7 - - - - WNW 9 13 5 7 1015.8 - 0.0
02/06:30am 12.8 - - - - N 7 9 4 5 1015.2 - 0.0
02/06:00am 15.0 - - - - NNW 7 9 4 5 1015.2 1014.9 0.0
02/05:30am 14.1 - - - - CALM 0 0 0 0 1015.2 - 0.0
02/05:00am 17.5 - - - - N 7 9 4 5 1015.2 - 0.0
02/04:30am 17.2 - - - - E 4 9 2 5 1015.4 - 0.0
02/04:00am 18.6 - - - - ESE 7 11 4 6 1015.4 - 0.0
02/03:30am 18.3 - - - - N 6 7 3 4 1015.6 - 0.0
02/03:00am 15.0 - - - - N 2 9 1 5 1015.6 1015.3 0.0
02/02:30am 14.9 - - - - N 4 7 2 4 1015.6 - 0.0
02/02:00am 19.4 - - - - NE 7 11 4 6 1015.4 - 0.0
02/01:30am 14.6 - - - - NE 7 9 4 5 1015.4 - 0.0
02/01:00am 14.9 - - - - NE 7 9 4 5 1015.4 - 0.0
02/12:30am 15.0 - - - - CALM 0 0 0 0 1015.5 - 0.0
02/12:00am 15.6 - - - - CALM 0 0 0 0 1015.5 1015.2 0.0
 
Date/Time
CST
Temp
°C
App
Temp
°C
Dew
Point
°C
Rel
Hum
%
Delta-T
°C
Wind Press
QNH
hPa
Press
MSL
hPa
Rain since
9am
mm
Dir  Spd
km/h
Gust
km/h
Spd
kts
Gust
kts
01/11:30pm 16.2 - - - - CALM 0 0 0 0 1015.5 - 0.0
01/11:00pm 18.2 - - - - N 4 7 2 4 1015.5 - 0.0
01/10:30pm 17.4 - - - - CALM 0 0 0 0 1015.3 - 0.0
01/10:00pm 19.5 - - - - CALM 0 0 0 0 1015.4 - 0.0
01/09:30pm 19.9 - - - - CALM 0 6 0 3 1015.1 - 0.0
01/09:00pm 20.0 - - - - CALM 0 0 0 0 1014.9 1014.6 0.0
01/08:30pm 22.4 - - - - CALM 0 0 0 0 1014.5 - 0.0
01/08:00pm 24.2 - - - - SSE 6 7 3 4 1014.3 - 0.0
01/07:30pm 26.1 - - - - SE 7 9 4 5 1014.0 - 0.0
01/07:00pm 28.1 - - - - SSE 9 13 5 7 1013.6 - 0.0
01/06:30pm 29.9 - - - - SSE 11 17 6 9 1013.1 - 0.0
01/06:00pm 30.9 - - - - SE 19 26 10 14 1012.7 1012.3 0.0
01/05:30pm 31.6 - - - - SSE 15 22 8 12 1012.6 - 0.0
01/05:00pm 31.6 - - - - SSE 17 28 9 15 1012.4 - 0.0
01/04:30pm 31.8 - - - - SE 17 28 9 15 1012.4 - 0.0
01/04:00pm 31.4 - - - - SSE 19 33 10 18 1012.6 - 0.0
01/03:30pm 31.0 - - - - SE 19 30 10 16 1012.8 - 0.0
01/03:00pm 31.2 - - - - SSE 20 30 11 16 1013.3 1012.9 0.0
01/02:30pm 30.8 - - - - SE 17 26 9 14 1014.0 - 0.0
01/02:00pm 30.1 - - - - E 15 30 8 16 1014.5 - 0.0
01/01:30pm 30.2 - - - - E 17 28 9 15 1015.1 - 0.0
01/01:00pm 29.7 - - - - SE 20 33 11 18 1015.5 - 0.0
01/12:30pm 28.9 - - - - ESE 22 33 12 18 1016.0 - 0.0
01/12:00pm 28.5 - - - - E 20 32 11 17 1016.3 1016.0 0.0
01/11:30am 27.9 - - - - E 22 35 12 19 1016.7 - 0.0
01/11:00am 27.3 - - - - E 28 41 15 22 1017.1 - 0.0
01/10:30am 26.4 - - - - E 20 30 11 16 1017.4 - 0.0
01/10:00am 24.7 - - - - E 15 26 8 14 1017.5 - 0.0
01/09:30am 24.4 - - - - E 19 28 10 15 1017.6 - 0.0
01/09:00am 22.6 - - - - ENE 11 17 6 9 1017.3 1017.0 0.0
01/08:30am 21.6 - - - - E 13 15 7 8 1017.0 - 0.0
01/08:00am 20.4 - - - - E 13 15 7 8 1016.7 - 0.0
01/07:30am 19.4 - - - - E 15 17 8 9 1016.5 - 0.0
01/07:08am 19.1 - - - - E 13 17 7 9 1016.1 - 0.0
01/07:00am 13.9 - - - - ENE 9 13 5 7 1016.0 - 0.0
01/06:30am 14.9 - - - - NNE 7 11 4 6 1015.5 - 0.0
01/06:00am 16.4 - - - - N 9 15 5 8 1015.3 1015.0 0.0
01/05:30am 14.6 - - - - N 6 7 3 4 1014.8 - 0.0
01/05:00am 17.3 - - - - SE 2 6 1 3 1014.7 - 0.0
01/04:30am 21.3 - - - - E 15 19 8 10 1014.6 - 0.0
01/04:00am 18.6 - - - - NNW 7 9 4 5 1014.4 - 0.0

Other formats

Comma delimited format used in spreadsheet applications
http://www.bom.gov.au/fwo/IDD60801/IDD60801.94130.axf

JavaScript Object Notation format (JSON) in row-major order
http://www.bom.gov.au/fwo/IDD60801/IDD60801.94130.json

Data quality

Most of these data are generated automatically and are frequently updated. Quality checks on data are not normally performed. It is possible for incorrect values to appear. Refer to information at About Latest Weather Observations and please check the disclaimer before using these data.